Time;durP1;ratioP1;P1;durP2;ratioP2;P2;SDS_P1;SDS_P2;PMS_P1;PMS_P2;Temp;Humidity;BMP_temperature;BMP_pressure;BME280_temperature;BME280_humidity;BME280_pressure;Samples;Min_cycle;Max_cycle;Signal;HPM_P1;HPM_P2
2023/04/15 00:00:20;;;;;;;14.57;10.30;;;;;;;7.70;57.93;100255.03;682949;28;1293;-83
2023/04/15 00:00:41;;;;;;;14.50;10.10;;;;;;;7.59;57.58;100231.31;685757;28;1333;-83
2023/04/15 00:01:01;;;;;;;13.57;9.50;;;;;;;7.64;57.60;100250.53;683091;29;1052;-83
2023/04/15 00:01:22;;;;;;;12.32;9.00;;;;;;;7.75;57.67;100269.03;685822;28;1306;-83
2023/04/15 00:01:43;;;;;;;10.48;8.60;;;;;;;7.63;58.03;100241.84;685916;28;933;-83
2023/04/15 00:02:17;;;;;;;10.80;8.55;;;;;;;7.75;58.06;100269.03;682952;28;1295;-83
2023/04/15 00:02:38;;;;;;;11.80;9.07;;;;;;;7.62;57.72;100242.66;685873;28;874;-83
2023/04/15 00:02:59;;;;;;;11.38;9.40;;;;;;;7.61;58.12;100246.09;685814;28;1263;-83
2023/04/15 00:03:19;;;;;;;11.25;8.93;;;;;;;7.63;57.82;100249.63;683033;29;1378;-83
2023/04/15 00:03:45;;;;;;;10.50;8.60;;;;;;;7.67;58.31;100255.78;685819;28;1169;-83
2023/04/15 00:04:05;;;;;;;10.57;8.68;;;;;;;7.60;58.33;100249.53;685523;28;1251;-84
2023/04/15 00:04:26;;;;;;;10.70;8.20;;;;;;;7.65;57.76;100258.38;685786;28;1249;-83
2023/04/15 00:04:47;;;;;;;11.75;8.55;;;;;;;7.60;57.99;100241.75;683219;29;844;-83
2023/04/15 00:05:08;;;;;;;15.18;9.98;;;;;;;7.64;58.03;100253.13;685752;28;1052;-83
2023/04/15 00:05:29;;;;;;;19.43;12.80;;;;;;;7.70;57.99;100257.63;685854;28;1005;-83
2023/04/15 00:05:49;;;;;;;23.38;15.13;;;;;;;7.63;57.67;100249.63;682978;28;1439;-82
2023/04/15 00:06:21;;;;;;;26.88;17.70;;;;;;;7.54;57.95;100234.66;683048;28;1303;-82
2023/04/15 00:06:41;;;;;;;26.25;17.27;;;;;;;7.56;58.12;100239.91;683145;29;859;-82
2023/04/15 00:07:02;;;;;;;26.55;16.38;;;;;;;7.63;57.88;100257.41;685560;28;1213;-83
2023/04/15 00:07:22;;;;;;;24.38;15.73;;;;;;;7.61;57.98;100255.63;685776;28;1257;-83
2023/04/15 00:07:45;;;;;;;26.65;16.65;;;;;;;7.56;57.94;100242.50;683181;29;1197;-83
2023/04/15 00:08:06;;;;;;;39.72;20.50;;;;;;;7.52;57.96;100246.72;682915;29;1141;-83
2023/04/15 00:08:28;;;;;;;61.75;28.05;;;;;;;7.56;58.12;100252.88;685910;28;962;-83
2023/04/15 00:08:52;;;;;;;81.43;34.13;;;;;;;7.52;57.86;100254.50;688427;28;1078;-83
2023/04/15 00:09:12;;;;;;;75.75;32.15;;;;;;;7.51;58.24;100247.53;685504;28;1141;-82
2023/04/15 00:09:33;;;;;;;66.55;28.58;;;;;;;7.42;58.13;100238.56;685839;28;1174;-83
2023/04/15 00:09:56;;;;;;;57.97;26.03;;;;;;;7.50;58.31;100252.69;685709;28;1257;-83
2023/04/15 00:10:17;;;;;;;50.97;23.90;;;;;;;7.39;58.09;100235.03;685628;28;933;-83
2023/04/15 00:10:37;;;;;;;44.63;21.60;;;;;;;7.37;58.18;100226.31;685742;28;1158;-83
2023/04/15 00:11:01;;;;;;;44.42;21.35;;;;;;;7.37;58.05;100236.69;688304;28;1184;-83
2023/04/15 00:11:23;;;;;;;39.47;19.63;;;;;;;7.38;58.50;100241.06;690916;28;1282;-83
2023/04/15 00:11:44;;;;;;;30.42;16.63;;;;;;;7.30;58.42;100229.53;683104;28;1400;-83
2023/04/15 00:12:05;;;;;;;19.98;12.55;;;;;;;7.45;58.57;100254.25;682913;28;1251;-83
2023/04/15 00:12:27;;;;;;;14.77;10.40;;;;;;;7.39;58.15;100240.22;685836;28;898;-83
2023/04/15 00:12:47;;;;;;;12.82;9.25;;;;;;;7.35;58.33;100232.28;688450;28;1109;-83
2023/04/15 00:13:08;;;;;;;11.73;8.80;;;;;;;7.42;58.64;100244.63;688295;28;1118;-83
2023/04/15 00:13:28;;;;;;;10.60;8.18;;;;;;;7.31;58.49;100231.28;689615;28;843;-82
2023/04/15 00:13:49;;;;;;;9.93;7.82;;;;;;;7.33;58.63;100242.63;688494;28;1108;-83
2023/04/15 00:14:10;;;;;;;10.07;8.00;;;;;;;7.29;58.42;100227.78;685691;28;1061;-83
2023/04/15 00:14:30;;;;;;;10.63;8.10;;;;;;;7.34;58.77;100241.81;685748;28;1907;-83
2023/04/15 00:14:51;;;;;;;12.27;9.32;;;;;;;7.28;58.52;100236.41;685729;28;1274;-83
2023/04/15 00:15:12;;;;;;;13.82;10.32;;;;;;;7.29;58.91;100230.38;685676;28;1149;-83
2023/04/15 00:15:33;;;;;;;16.38;11.57;;;;;;;7.32;59.08;100251.25;683068;28;1113;-83
2023/04/15 00:15:53;;;;;;;15.90;11.03;;;;;;;7.29;58.61;100235.56;683175;29;910;-83
2023/04/15 00:16:14;;;;;;;15.55;11.00;;;;;;;7.30;58.94;100233.88;683311;28;1098;-83
2023/04/15 00:16:35;;;;;;;14.75;10.70;;;;;;;7.34;59.14;100254.78;683537;28;811;-83
2023/04/15 00:16:56;;;;;;;14.05;10.55;;;;;;;7.26;59.32;100233.75;686336;28;948;-83
2023/04/15 00:17:17;;;;;;;13.65;10.00;;;;;;;7.27;58.87;100239.84;685637;28;1180;-83
2023/04/15 00:17:38;;;;;;;13.02;9.77;;;;;;;7.29;59.16;100238.16;685863;28;886;-83
2023/04/15 00:17:59;;;;;;;16.42;9.57;;;;;;;7.27;58.84;100235.50;688503;28;1196;-82
2023/04/15 00:18:19;;;;;;;17.77;10.10;;;;;;;7.29;58.82;100245.09;685677;28;1031;-83
2023/04/15 00:18:40;;;;;;;17.20;9.90;;;;;;;7.25;58.86;100231.13;688513;28;779;-83
2023/04/15 00:19:00;;;;;;;13.77;9.50;;;;;;;7.25;59.14;100242.38;688736;28;1094;-83
2023/04/15 00:19:23;;;;;;;12.45;9.15;;;;;;;7.27;59.29;100239.84;690673;28;1070;-83
2023/04/15 00:19:44;;;;;;;12.25;9.07;;;;;;;7.26;58.91;100238.06;688544;28;839;-83
2023/04/15 00:20:05;;;;;;;14.25;9.40;;;;;;;7.27;59.11;100234.66;682903;29;1196;-83
2023/04/15 00:20:26;;;;;;;14.90;9.57;;;;;;;7.37;59.17;100251.41;683112;28;1270;-84
2023/04/15 00:20:47;;;;;;;13.13;9.70;;;;;;;7.36;58.75;100255.69;683266;29;725;-82
2023/04/15 00:21:08;;;;;;;13.00;9.67;;;;;;;7.32;58.68;100251.25;682865;28;1130;-83
2023/04/15 00:21:29;;;;;;;14.25;10.30;;;;;;;7.28;58.90;100241.59;685771;28;1319;-83
2023/04/15 00:21:51;;;;;;;13.98;10.20;;;;;;;7.30;59.10;100239.91;685677;28;1355;-83
2023/04/15 00:22:12;;;;;;;13.35;10.13;;;;;;;7.29;59.36;100248.53;682948;28;1184;-83
2023/04/15 00:22:32;;;;;;;14.32;9.68;;;;;;;7.29;59.00;100250.28;683274;29;764;-83
2023/04/15 00:22:53;;;;;;;14.70;9.57;;;;;;;7.20;59.47;100224.88;682998;28;1345;-83
2023/04/15 00:23:14;;;;;;;15.07;9.38;;;;;;;7.24;59.33;100234.53;682968;29;1147;-83
2023/04/15 00:24:12;;;;;;;13.20;9.45;;;;;;;7.34;59.30;100256.47;685697;28;780;-82
2023/04/15 00:24:33;;;;;;;11.77;9.43;;;;;;;7.24;59.20;100239.72;685715;28;1106;-83
2023/04/15 00:24:53;;;;;;;12.35;9.43;;;;;;;7.23;59.19;100235.34;688526;28;1128;-83
2023/04/15 00:25:14;;;;;;;12.90;9.90;;;;;;;7.28;58.96;100241.59;688307;28;1170;-83
2023/04/15 00:25:34;;;;;;;12.50;10.10;;;;;;;7.22;59.38;100237.09;685846;28;1140;-83
2023/04/15 00:25:55;;;;;;;13.10;10.07;;;;;;;7.21;59.61;100232.75;685831;28;1112;-83
2023/04/15 00:26:17;;;;;;;12.90;9.60;;;;;;;7.16;59.04;100225.59;685688;28;1056;-83
2023/04/15 00:26:38;;;;;;;13.82;9.65;;;;;;;7.22;59.61;100231.91;685792;28;1435;-82
2023/04/15 00:26:59;;;;;;;13.07;9.63;;;;;;;7.22;59.55;100234.50;688049;28;1185;-82
2023/04/15 00:27:19;;;;;;;12.73;9.82;;;;;;;7.20;59.17;100222.28;686045;28;1133;-83
2023/04/15 00:27:41;;;;;;;12.10;9.52;;;;;;;7.27;59.53;100234.66;685784;28;1154;-83
2023/04/15 00:28:01;;;;;;;11.40;9.32;;;;;;;7.22;59.31;100225.81;685621;28;1121;-83
2023/04/15 00:28:22;;;;;;;10.97;9.13;;;;;;;7.26;59.55;100248.47;688374;28;1300;-83
2023/04/15 00:28:43;;;;;;;10.07;8.95;;;;;;;7.16;59.00;100226.50;688532;28;795;-83
2023/04/15 00:29:04;;;;;;;11.70;9.55;;;;;;;7.26;59.11;100244.13;682753;29;1389;-83
2023/04/15 00:29:25;;;;;;;12.30;9.57;;;;;;;7.15;59.33;100229.94;682981;28;1026;-83
2023/04/15 00:29:45;;;;;;;13.70;9.90;;;;;;;7.10;59.35;100227.19;683076;28;1070;-82
2023/04/15 00:30:06;;;;;;;14.02;10.00;;;;;;;7.12;59.69;100229.81;688182;28;1206;-83
2023/04/15 00:30:27;;;;;;;13.95;10.65;;;;;;;7.10;59.49;100226.28;685649;28;1502;-82
2023/04/15 00:30:48;;;;;;;13.90;10.80;;;;;;;7.22;59.45;100241.38;683163;29;1135;-83
2023/04/15 00:31:08;;;;;;;13.63;10.77;;;;;;;7.09;59.53;100228.03;682898;28;1079;-83
2023/04/15 00:31:30;;;;;;;13.52;10.50;;;;;;;7.17;59.44;100243.81;683059;28;1300;-83
2023/04/15 00:31:52;;;;;;;13.27;10.40;;;;;;;7.07;59.68;100234.84;683090;29;1105;-83
2023/04/15 00:32:13;;;;;;;13.35;10.50;;;;;;;7.04;59.43;100228.66;685659;28;1173;-83
2023/04/15 00:32:34;;;;;;;12.57;10.25;;;;;;;7.09;59.33;100235.81;685721;28;1218;-83
2023/04/15 00:32:55;;;;;;;11.13;9.80;;;;;;;7.07;59.42;100237.44;688487;28;1096;-83
2023/04/15 00:33:16;;;;;;;11.93;9.67;;;;;;;7.08;59.65;100234.03;688317;28;1298;-81
2023/04/15 00:33:37;;;;;;;11.40;8.97;;;;;;;7.07;59.24;100239.16;683134;29;732;-83
2023/04/15 00:33:58;;;;;;;12.27;9.27;;;;;;;7.06;59.75;100219.25;685623;28;1130;-83
2023/04/15 00:34:19;;;;;;;11.07;8.90;;;;;;;7.11;59.34;100234.13;685593;28;2003;-83
2023/04/15 00:34:39;;;;;;;11.90;9.40;;;;;;;7.09;59.67;100243.59;683262;29;804;-83
2023/04/15 00:35:02;;;;;;;10.85;9.18;;;;;;;6.96;59.94;100231.03;685638;28;1212;-83
2023/04/15 00:35:23;;;;;;;11.20;9.23;;;;;;;7.05;60.08;100244.31;685694;28;883;-83
2023/04/15 00:35:44;;;;;;;10.77;9.05;;;;;;;7.00;59.96;100245.84;685663;28;1256;-83
2023/04/15 00:36:06;;;;;;;10.02;8.80;;;;;;;6.96;59.82;100234.50;688171;28;1052;-83
2023/04/15 00:36:26;;;;;;;10.57;8.95;;;;;;;7.01;59.84;100242.44;685562;28;1346;-82
2023/04/15 00:36:47;;;;;;;11.43;8.90;;;;;;;6.90;60.09;100217.84;682931;29;828;-82
2023/04/15 00:37:09;;;;;;;11.90;8.77;;;;;;;6.92;59.91;100226.53;680266;29;1053;-83
2023/04/15 00:37:30;;;;;;;11.68;8.70;;;;;;;6.92;60.04;100230.03;682895;28;1271;-83
2023/04/15 00:37:51;;;;;;;10.00;8.50;;;;;;;6.98;60.04;100232.84;682748;29;1477;-82
2023/04/15 00:38:12;;;;;;;9.95;8.82;;;;;;;6.94;60.00;100227.50;685409;28;1040;-82
2023/04/15 00:38:50;;;;;;;10.95;9.20;;;;;;;6.94;59.79;100219.72;685450;28;730;-83
2023/04/15 00:39:11;;;;;;;10.68;9.25;;;;;;;7.05;60.11;100238.25;688074;28;1120;-83
2023/04/15 00:39:32;;;;;;;10.60;8.90;;;;;;;6.99;60.41;100231.13;685703;28;1257;-83
2023/04/15 00:39:52;;;;;;;10.73;8.90;;;;;;;7.00;59.87;100230.28;686227;28;1272;-83
2023/04/15 00:40:17;;;;;;;13.02;8.93;;;;;;;7.00;59.93;100235.47;688374;28;941;-83
2023/04/15 00:40:38;;;;;;;11.80;8.45;;;;;;;6.93;59.88;100221.41;683016;29;1353;-84
2023/04/15 00:40:59;;;;;;;11.00;8.10;;;;;;;6.97;59.92;100222.41;688374;28;1278;-83
2023/04/15 00:41:20;;;;;;;9.65;8.43;;;;;;;6.96;59.78;100224.13;688221;28;1254;-83
2023/04/15 00:41:41;;;;;;;10.73;9.00;;;;;;;6.98;60.02;100232.84;683022;29;1180;-83
2023/04/15 00:42:06;;;;;;;11.23;9.20;;;;;;;7.01;60.01;100237.25;680173;29;1443;-83
2023/04/15 00:42:27;;;;;;;11.77;8.90;;;;;;;6.91;59.97;100224.78;683034;29;1277;-83
2023/04/15 00:42:48;;;;;;;11.07;9.05;;;;;;;6.93;60.58;100223.16;682894;28;1355;-83
2023/04/15 00:43:09;;;;;;;11.65;9.43;;;;;;;7.01;59.96;100242.44;682950;29;1089;-83
2023/04/15 00:43:29;;;;;;;11.35;9.90;;;;;;;6.97;59.90;100232.78;688435;28;1194;-82
2023/04/15 00:43:51;;;;;;;12.65;10.60;;;;;;;7.03;60.13;100239.88;685673;28;1220;-83
2023/04/15 00:44:11;;;;;;;14.18;11.15;;;;;;;6.98;60.03;100231.94;682893;28;1185;-83
2023/04/15 00:44:33;;;;;;;15.25;11.57;;;;;;;7.01;60.17;100241.56;683135;28;808;-83
2023/04/15 00:45:07;;;;;;;13.65;11.55;;;;;;;6.94;60.35;100228.38;680322;29;966;-83
2023/04/15 00:45:28;;;;;;;13.73;11.63;;;;;;;6.95;60.19;100230.13;683049;28;855;-82
2023/04/15 00:45:52;;;;;;;12.75;11.25;;;;;;;7.04;60.31;100247.72;685651;28;1016;-83
2023/04/15 00:46:16;;;;;;;12.38;11.05;;;;;;;6.92;60.32;100230.03;682892;28;1447;-83
2023/04/15 00:46:38;;;;;;;12.20;10.48;;;;;;;6.97;60.68;100237.97;685637;28;1344;-83
2023/04/15 00:47:00;;;;;;;10.82;9.35;;;;;;;6.92;60.60;100232.63;685458;28;1348;-83
2023/04/15 00:47:21;;;;;;;10.20;9.00;;;;;;;6.95;60.48;100239.63;682722;28;1262;-83
2023/04/15 00:47:43;;;;;;;10.27;9.18;;;;;;;6.95;60.59;100247.41;685683;28;1258;-82
2023/04/15 00:48:04;;;;;;;10.70;9.38;;;;;;;6.95;60.31;100244.81;685329;28;1197;-83
2023/04/15 00:48:26;;;;;;;10.82;9.57;;;;;;;6.93;60.30;100246.50;682912;28;867;-83
2023/04/15 00:48:48;;;;;;;10.73;9.63;;;;;;;6.92;60.73;100239.50;685669;28;1267;-83
2023/04/15 00:49:08;;;;;;;10.73;9.63;;;;;;;6.83;60.47;100238.38;685429;28;1096;-83
2023/04/15 00:49:29;;;;;;;11.33;9.43;;;;;;;6.88;60.59;100235.06;687413;28;1130;-83
2023/04/15 00:49:50;;;;;;;11.18;9.20;;;;;;;6.89;60.40;100242.91;688313;28;1245;-82
2023/04/15 00:50:12;;;;;;;11.90;8.95;;;;;;;6.93;60.58;100243.91;682875;28;1271;-83
2023/04/15 00:50:33;;;;;;;10.88;9.00;;;;;;;6.93;60.68;100243.91;685664;28;1321;-82
2023/04/15 00:50:53;;;;;;;10.27;8.80;;;;;;;6.87;60.75;100233.31;682974;28;1287;-82
2023/04/15 00:51:14;;;;;;;9.70;8.70;;;;;;;6.81;60.67;100234.84;680115;29;1378;-83
2023/04/15 00:51:36;;;;;;;10.40;8.77;;;;;;;6.93;60.73;100238.72;683030;29;1123;-83
2023/04/15 00:51:56;;;;;;;10.07;8.68;;;;;;;6.83;60.29;100227.13;685598;28;1140;-83
2023/04/15 00:52:18;;;;;;;9.50;8.48;;;;;;;6.91;60.53;100235.16;680190;29;1206;-82
2023/04/15 00:52:39;;;;;;;9.70;8.65;;;;;;;6.91;60.82;100241.25;685552;28;1443;-83
2023/04/15 00:53:00;;;;;;;9.70;8.70;;;;;;;6.85;60.48;100236.72;688360;28;1107;-82
2023/04/15 00:53:20;;;;;;;10.80;8.70;;;;;;;6.80;60.67;100233.09;688211;28;1123;-82
2023/04/15 00:53:53;;;;;;;10.45;8.65;;;;;;;6.79;60.55;100223.53;688165;28;1281;-83
2023/04/15 00:54:13;;;;;;;10.40;8.80;;;;;;;6.82;60.86;100233.16;690798;28;1307;-82
2023/04/15 00:54:35;;;;;;;9.70;8.70;;;;;;;6.82;60.38;100226.22;688155;28;1979;-83
2023/04/15 00:54:56;;;;;;;10.32;8.77;;;;;;;6.78;60.63;100224.38;688259;28;1256;-83
2023/04/15 00:55:18;;;;;;;11.52;8.82;;;;;;;6.88;60.75;100240.25;688404;28;1108;-83
2023/04/15 00:55:39;;;;;;;11.68;8.88;;;;;;;6.86;60.51;100235.00;688317;28;1114;-83
2023/04/15 00:55:59;;;;;;;11.07;8.50;;;;;;;6.86;60.46;100242.78;691094;28;1192;-82
2023/04/15 00:56:23;;;;;;;12.07;8.20;;;;;;;6.82;60.73;100225.38;690942;28;1106;-83
2023/04/15 00:56:44;;;;;;;12.90;8.40;;;;;;;6.77;60.47;100222.63;688668;28;1097;-83
2023/04/15 00:57:06;;;;;;;11.55;8.70;;;;;;;6.76;60.58;100226.00;685498;28;1118;-82
2023/04/15 00:57:28;;;;;;;11.25;8.70;;;;;;;6.82;60.78;100238.34;685659;28;1344;-83
2023/04/15 00:57:49;;;;;;;10.52;8.80;;;;;;;6.70;60.40;100218.00;682839;29;1495;-83
2023/04/15 00:58:10;;;;;;;10.35;9.25;;;;;;;6.76;60.75;100228.59;688151;28;1129;-82
2023/04/15 00:58:31;;;;;;;10.20;9.00;;;;;;;6.75;60.69;100219.06;688257;28;1407;-83
2023/04/15 00:58:51;;;;;;;9.95;8.40;;;;;;;6.76;60.89;100228.59;682956;29;1315;-82
2023/04/15 00:59:14;;;;;;;10.30;8.10;;;;;;;6.83;60.76;100235.78;682801;29;1212;-83
2023/04/15 00:59:35;;;;;;;10.60;8.63;;;;;;;6.79;60.85;100228.72;683050;29;871;-82
2023/04/15 00:59:56;;;;;;;11.80;9.13;;;;;;;6.87;61.14;100235.91;682898;28;1291;-83
2023/04/15 01:00:19;;;;;;;11.00;9.40;;;;;;;6.74;60.66;100217.31;688188;28;1178;-82
2023/04/15 01:00:41;;;;;;;11.68;9.23;;;;;;;6.72;60.36;100218.97;691084;28;1082;-85
2023/04/15 01:01:03;;;;;;;10.40;8.82;;;;;;;6.82;60.83;100231.41;688281;28;1375;-85
2023/04/15 01:01:24;;;;;;;11.52;8.50;;;;;;;6.80;60.94;100227.91;685512;28;883;-85
2023/04/15 01:01:45;;;;;;;10.50;8.27;;;;;;;6.75;60.91;100226.84;685641;28;1216;-85
2023/04/15 01:02:07;;;;;;;11.82;8.63;;;;;;;6.80;61.09;100233.09;682739;28;1040;-85
2023/04/15 01:02:27;;;;;;;10.88;9.02;;;;;;;6.70;60.68;100218.00;685766;28;673;-85
2023/04/15 01:02:48;;;;;;;10.10;8.77;;;;;;;6.69;60.82;100216.25;685559;28;1100;-85
2023/04/15 01:03:10;;;;;;;9.50;8.38;;;;;;;6.71;60.94;100217.22;685643;28;1252;-85
2023/04/15 01:03:31;;;;;;;9.32;8.10;;;;;;;6.75;60.94;100224.25;683019;28;1454;-85
2023/04/15 01:03:52;;;;;;;9.57;8.25;;;;;;;6.67;61.01;100210.09;685706;28;1156;-85
2023/04/15 01:04:14;;;;;;;9.55;8.45;;;;;;;6.76;61.11;100235.53;682841;28;1426;-85
2023/04/15 01:04:35;;;;;;;9.23;8.23;;;;;;;6.74;60.92;100226.81;683011;29;1271;-85
2023/04/15 01:04:56;;;;;;;9.05;8.02;;;;;;;6.74;60.85;100225.09;685545;28;960;-85
2023/04/15 01:05:18;;;;;;;9.10;7.80;;;;;;;6.73;60.94;100225.06;682895;29;1262;-85
2023/04/15 01:05:38;;;;;;;9.70;8.18;;;;;;;6.63;60.72;100210.84;683008;29;1245;-85
2023/04/15 01:06:00;;;;;;;9.20;8.30;;;;;;;6.58;60.66;100201.19;682955;28;1078;-85
2023/04/15 01:06:22;;;;;;;9.15;8.27;;;;;;;6.73;60.96;100233.69;682916;28;754;-85
2023/04/15 01:06:42;;;;;;;10.77;8.50;;;;;;;6.62;60.99;100211.69;682991;29;769;-85
2023/04/15 01:07:04;;;;;;;10.73;8.18;;;;;;;6.61;60.95;100213.38;685266;28;1263;-85
2023/04/15 01:07:25;;;;;;;10.55;8.50;;;;;;;6.63;60.98;100229.00;682906;28;1154;-85
2023/04/15 01:07:46;;;;;;;9.23;8.25;;;;;;;6.63;61.19;100221.22;685578;28;1173;-85
2023/04/15 01:08:07;;;;;;;9.77;8.77;;;;;;;6.63;61.17;100216.03;685394;28;1264;-85
2023/04/15 01:08:28;;;;;;;10.60;8.90;;;;;;;6.60;61.28;100208.13;685677;28;775;-85
2023/04/15 01:08:49;;;;;;;9.50;8.50;;;;;;;6.56;61.40;100205.44;682947;28;1262;-85
2023/04/15 01:09:10;;;;;;;8.95;7.97;;;;;;;6.58;61.08;100214.13;685429;28;1266;-85
2023/04/15 01:09:32;;;;;;;8.55;7.65;;;;;;;6.53;61.38;100213.13;682922;28;1395;-85
2023/04/15 01:09:57;;;;;;;9.70;8.30;;;;;;;6.63;61.20;100229.00;682972;28;1020;-86
2023/04/15 01:10:17;;;;;;;9.80;8.73;;;;;;;6.57;61.44;100214.97;680160;29;965;-85
2023/04/15 01:10:38;;;;;;;9.98;8.95;;;;;;;6.66;61.20;100223.91;682981;28;905;-85
2023/04/15 01:11:02;;;;;;;10.63;9.02;;;;;;;6.66;61.32;100234.28;685668;28;994;-86
2023/04/15 01:11:24;;;;;;;10.57;8.60;;;;;;;6.57;60.84;100214.97;685602;28;864;-85
2023/04/15 01:11:44;;;;;;;9.78;8.52;;;;;;;6.56;61.60;100217.50;685612;28;1086;-85
2023/04/15 01:12:07;;;;;;;9.70;8.37;;;;;;;6.62;61.70;100227.22;685263;28;1228;-85
2023/04/15 01:12:28;;;;;;;9.65;8.60;;;;;;;6.56;61.26;100222.69;682849;28;1321;-85
2023/04/15 01:12:48;;;;;;;9.65;8.65;;;;;;;6.56;61.39;100221.00;685598;28;1281;-85
2023/04/15 01:13:09;;;;;;;9.93;8.88;;;;;;;6.55;61.40;100219.22;685456;28;1198;-85
2023/04/15 01:13:32;;;;;;;10.00;9.00;;;;;;;6.65;61.52;100230.81;685739;28;796;-85
2023/04/15 01:13:56;;;;;;;10.43;9.32;;;;;;;6.67;61.79;100239.53;685481;28;942;-85
2023/04/15 01:14:16;;;;;;;10.48;9.38;;;;;;;6.57;61.91;100220.16;682883;29;1349;-85
2023/04/15 01:14:37;;;;;;;10.05;9.02;;;;;;;6.61;61.56;100228.03;683106;29;729;-85
2023/04/15 01:14:58;;;;;;;10.23;9.20;;;;;;;6.63;61.55;100223.81;683083;28;1116;-85
2023/04/15 01:15:51;;;;;;;11.43;9.40;;;;;;;6.65;61.83;100237.69;682761;28;1262;-85
2023/04/15 01:16:13;;;;;;;11.25;8.68;;;;;;;6.53;62.05;100217.41;682802;29;1182;-85
2023/04/15 01:16:33;;;;;;;11.18;8.25;;;;;;;6.53;62.21;100233.84;683131;29;808;-85
2023/04/15 01:16:54;;;;;;;11.13;8.50;;;;;;;6.52;61.96;100216.50;685377;28;1144;-85
2023/04/15 01:17:15;;;;;;;11.80;8.60;;;;;;;6.56;62.05;100233.06;685577;28;1184;-85
2023/04/15 01:17:36;;;;;;;10.38;8.90;;;;;;;6.58;61.92;100234.03;682870;28;1086;-85
2023/04/15 01:18:02;;;;;;;10.23;8.80;;;;;;;6.60;62.13;100234.06;683051;29;1109;-85
2023/04/15 01:18:24;;;;;;;9.82;8.82;;;;;;;6.63;62.20;100244.56;685554;28;1130;-85
2023/04/15 01:18:44;;;;;;;9.48;8.57;;;;;;;6.46;61.94;100216.31;688417;28;800;-85
2023/04/15 01:19:09;;;;;;;9.40;8.40;;;;;;;6.49;61.88;100231.97;688087;28;1329;-85
2023/04/15 01:19:30;;;;;;;9.68;8.50;;;;;;;6.55;62.16;100241.66;685632;28;1228;-85
2023/04/15 01:19:51;;;;;;;10.13;8.63;;;;;;;6.43;61.82;100222.25;688183;28;1110;-85
2023/04/15 01:20:12;;;;;;;9.88;8.85;;;;;;;6.51;62.02;100232.03;688199;28;999;-85
2023/04/15 01:20:33;;;;;;;10.02;8.82;;;;;;;6.46;62.17;100226.69;685668;28;1063;-85
2023/04/15 01:20:54;;;;;;;10.40;8.77;;;;;;;6.58;61.91;100244.38;685551;28;1370;-85
2023/04/15 01:21:18;;;;;;;10.77;8.93;;;;;;;6.54;61.93;100233.03;682828;29;1080;-85
2023/04/15 01:21:40;;;;;;;10.32;9.23;;;;;;;6.57;62.11;100247.81;685574;28;1140;-85
2023/04/15 01:22:02;;;;;;;9.97;8.97;;;;;;;6.52;62.20;100237.25;682806;28;1140;-85
2023/04/15 01:22:26;;;;;;;9.40;8.40;;;;;;;6.42;61.98;100215.31;688227;28;1607;-84
2023/04/15 01:22:48;;;;;;;10.30;9.10;;;;;;;6.42;62.21;100220.50;688194;28;1223;-85
2023/04/15 01:23:08;;;;;;;10.85;9.70;;;;;;;6.52;61.94;100239.84;685525;28;1090;-85
2023/04/15 01:23:29;;;;;;;11.02;9.93;;;;;;;6.53;61.95;100241.63;688318;28;1357;-85
2023/04/15 01:23:52;;;;;;;10.40;9.40;;;;;;;6.56;61.98;100248.63;690982;28;1287;-85
2023/04/15 01:24:16;;;;;;;11.02;9.18;;;;;;;6.43;62.05;100222.25;688147;28;1042;-84
2023/04/15 01:24:37;;;;;;;11.48;9.40;;;;;;;6.50;62.14;100240.63;685676;28;1376;-85
2023/04/15 01:25:08;;;;;;;13.23;8.93;;;;;;;6.43;62.22;100229.16;685557;28;1242;-85
2023/04/15 01:25:33;;;;;;;13.85;8.77;;;;;;;6.54;61.97;100251.16;683135;29;828;-85
2023/04/15 01:25:55;;;;;;;11.15;8.80;;;;;;;6.53;62.35;100239.03;688219;28;1392;-85
2023/04/15 01:26:16;;;;;;;9.82;8.80;;;;;;;6.45;62.28;100224.94;688184;28;1115;-85
2023/04/15 01:26:38;;;;;;;9.45;8.52;;;;;;;6.51;62.03;100238.06;688369;28;854;-85
2023/04/15 01:27:01;;;;;;;9.70;8.54;;;;;;;6.47;62.17;100232.72;685310;28;1288;-85
2023/04/15 01:27:24;;;;;;;9.63;8.60;;;;;;;6.48;61.96;100235.38;682891;29;1268;-85
2023/04/15 01:27:46;;;;;;;9.80;8.77;;;;;;;6.47;62.09;100227.53;683011;28;792;-85
2023/04/15 01:28:08;;;;;;;10.40;8.68;;;;;;;6.48;62.32;100230.22;682745;29;1151;-85
2023/04/15 01:28:28;;;;;;;11.88;8.80;;;;;;;6.55;61.96;100246.84;682894;29;1160;-85
2023/04/15 01:28:49;;;;;;;11.30;8.60;;;;;;;6.47;62.24;100233.63;685534;28;1272;-84
2023/04/15 01:29:10;;;;;;;9.82;8.68;;;;;;;6.43;61.98;100221.38;682827;28;1091;-85
2023/04/15 01:29:33;;;;;;;9.90;8.80;;;;;;;6.41;62.27;100223.94;688438;28;1109;-85
2023/04/15 01:29:54;;;;;;;10.68;8.95;;;;;;;6.50;61.86;100238.91;688288;28;898;-85
2023/04/15 01:30:14;;;;;;;13.05;9.27;;;;;;;6.36;62.20;100224.56;685547;28;1004;-85
2023/04/15 01:30:35;;;;;;;12.60;9.20;;;;;;;6.33;62.06;100224.47;688293;28;1299;-85
2023/04/15 01:31:09;;;;;;;11.65;9.27;;;;;;;6.35;61.96;100222.81;693660;28;1122;-85
2023/04/15 01:31:33;;;;;;;11.57;9.48;;;;;;;6.43;62.38;100242.09;688264;28;1320;-85
2023/04/15 01:31:55;;;;;;;11.47;9.47;;;;;;;6.34;62.42;100226.22;682882;29;1181;-85
2023/04/15 01:32:16;;;;;;;10.80;9.10;;;;;;;6.39;62.24;100241.09;688035;28;1220;-85
2023/04/15 01:32:38;;;;;;;10.10;9.00;;;;;;;6.38;62.29;100243.66;685571;28;1283;-85
2023/04/15 01:32:58;;;;;;;10.10;9.00;;;;;;;6.30;62.37;100228.72;682985;29;1009;-85
2023/04/15 01:33:19;;;;;;;10.00;8.90;;;;;;;6.30;62.01;100225.22;685565;28;1209;-85
2023/04/15 01:33:42;;;;;;;10.10;8.60;;;;;;;6.29;62.34;100233.84;685518;28;1411;-85
2023/04/15 01:34:02;;;;;;;10.90;8.93;;;;;;;6.26;62.32;100224.22;682798;28;1236;-85
2023/04/15 01:34:23;;;;;;;10.77;9.00;;;;;;;6.33;62.34;100234.84;680055;29;1911;-85
2023/04/15 01:34:48;;;;;;;9.82;8.82;;;;;;;6.36;62.25;100246.19;683003;29;1340;-85
2023/04/15 01:35:08;;;;;;;9.83;8.83;;;;;;;6.23;62.13;100226.72;682715;29;1336;-85
2023/04/15 01:35:29;;;;;;;9.80;8.80;;;;;;;6.21;62.63;100225.78;680325;29;887;-85
2023/04/15 01:35:50;;;;;;;9.90;8.90;;;;;;;6.22;62.61;100232.75;682820;28;1215;-85
2023/04/15 01:36:11;;;;;;;10.67;9.60;;;;;;;6.20;62.34;100221.41;682708;28;1289;-85
2023/04/15 01:36:32;;;;;;;10.68;9.57;;;;;;;6.28;62.55;100243.31;682982;29;1027;-85
2023/04/15 01:36:52;;;;;;;10.95;9.50;;;;;;;6.24;62.50;100231.06;685333;28;1361;-85
2023/04/15 01:37:15;;;;;;;10.25;9.00;;;;;;;6.20;62.37;100226.59;688110;28;1492;-85
2023/04/15 01:37:37;;;;;;;10.25;8.82;;;;;;;6.20;62.67;100234.38;682902;29;1195;-85
2023/04/15 01:38:05;;;;;;;10.20;9.10;;;;;;;6.24;62.32;100241.44;685516;28;1169;-85
2023/04/15 01:38:26;;;;;;;11.27;9.20;;;;;;;6.22;62.27;100237.91;688203;28;1996;-85
2023/04/15 01:38:47;;;;;;;12.05;9.13;;;;;;;6.27;62.27;100241.53;685615;28;1177;-85
2023/04/15 01:39:08;;;;;;;12.48;9.25;;;;;;;6.27;62.17;100245.84;687911;28;1308;-85
2023/04/15 01:39:29;;;;;;;11.15;8.90;;;;;;;6.24;62.33;100241.44;688280;28;1194;-85
2023/04/15 01:39:51;;;;;;;10.10;8.95;;;;;;;6.25;62.54;100250.97;688214;28;1034;-85
2023/04/15 01:40:12;;;;;;;11.63;9.20;;;;;;;6.14;62.72;100239.34;685423;28;1223;-85
2023/04/15 01:40:34;;;;;;;12.77;9.45;;;;;;;6.19;62.37;100237.78;685669;28;973;-85
2023/04/15 01:40:54;;;;;;;12.93;9.88;;;;;;;6.15;62.34;100233.34;682901;28;1220;-84
2023/04/15 01:41:16;;;;;;;12.35;10.27;;;;;;;6.15;62.40;100230.75;685402;28;1315;-83
2023/04/15 01:41:48;;;;;;;11.82;10.02;;;;;;;6.14;62.87;100236.75;688274;28;1106;-85
2023/04/15 01:42:10;;;;;;;10.27;9.23;;;;;;;6.11;62.92;100231.44;687978;28;1229;-85
2023/04/15 01:42:31;;;;;;;10.80;9.55;;;;;;;6.11;62.56;100231.44;688382;28;1517;-85
2023/04/15 01:42:52;;;;;;;11.20;9.88;;;;;;;6.16;62.67;100250.63;680242;28;1100;-85
2023/04/15 01:43:12;;;;;;;12.07;10.20;;;;;;;6.08;62.99;100228.75;688098;28;1164;-85
2023/04/15 01:43:38;;;;;;;11.80;9.93;;;;;;;6.05;62.72;100223.44;685588;28;1287;-85
2023/04/15 01:43:59;;;;;;;12.25;9.75;;;;;;;6.06;62.90;100225.22;688204;28;983;-85
2023/04/15 01:44:20;;;;;;;11.93;9.90;;;;;;;6.10;62.99;100229.66;682817;29;1332;-85
2023/04/15 01:45:12;;;;;;;12.57;10.05;;;;;;;6.21;63.16;100251.72;682967;28;1066;-85
2023/04/15 01:45:32;;;;;;;11.93;9.40;;;;;;;6.03;62.69;100224.25;683068;29;776;-85